Time;durP1;ratioP1;P1;durP2;ratioP2;P2;SDS_P1;SDS_P2;PMS_P1;PMS_P2;Temp;Humidity;BMP_temperature;BMP_pressure;BME280_temperature;BME280_humidity;BME280_pressure;Samples;Min_cycle;Max_cycle;Signal;HPM_P1;HPM_P2
2024/01/08 00:01:36;;;;;;;4.30;3.90;;;-1.10;99.90;;;;;;5051405;28;20566;-70
2024/01/08 00:04:03;;;;;;;4.43;4.03;;;-1.00;99.90;;;;;;5051199;28;20190;-70
2024/01/08 00:06:28;;;;;;;4.50;4.10;;;-1.00;99.90;;;;;;5057561;28;20431;-70
2024/01/08 00:08:55;;;;;;;4.93;4.10;;;-1.00;99.90;;;;;;5065714;28;20493;-70
2024/01/08 00:11:20;;;;;;;5.57;4.20;;;-1.00;99.90;;;;;;5072318;28;20165;-70
2024/01/08 00:13:46;;;;;;;3.97;3.60;;;-1.00;99.90;;;;;;5050564;28;20428;-70
2024/01/08 00:16:11;;;;;;;5.50;3.33;;;-1.00;99.90;;;;;;5060753;28;20346;-70
2024/01/08 00:18:37;;;;;;;4.70;3.50;;;-1.00;99.90;;;;;;5062632;28;20172;-70
2024/01/08 00:21:02;;;;;;;4.67;3.50;;;-1.00;99.90;;;;;;5053840;28;20540;-70
2024/01/08 00:23:30;;;;;;;3.37;3.07;;;-1.00;99.90;;;;;;5060662;28;20177;-70
2024/01/08 00:28:45;;;;;;;6.03;4.10;;;-1.10;99.90;;;;;;5052522;28;20490;-66
2024/01/08 00:31:13;;;;;;;4.27;3.23;;;-1.00;99.90;;;;;;5060908;28;20431;-67
2024/01/08 00:33:39;;;;;;;3.87;3.50;;;-1.10;99.90;;;;;;5062277;28;20950;-66
2024/01/08 00:36:04;;;;;;;3.80;3.40;;;-1.20;99.90;;;;;;5069377;28;20466;-66
2024/01/08 00:38:30;;;;;;;4.57;4.13;;;-1.30;99.90;;;;;;5084976;28;20165;-66
2024/01/08 00:40:55;;;;;;;3.80;3.50;;;-1.20;99.90;;;;;;5073753;28;20667;-66
2024/01/08 00:43:21;;;;;;;4.03;3.63;;;-1.20;99.90;;;;;;5083360;28;20179;-66
2024/01/08 00:45:46;;;;;;;6.40;5.07;;;-1.20;99.90;;;;;;5073028;28;20201;-66
2024/01/08 00:48:12;;;;;;;4.73;3.77;;;-1.20;99.90;;;;;;5074535;28;20177;-66
2024/01/08 00:50:37;;;;;;;5.30;3.90;;;-1.20;99.90;;;;;;5081984;28;20183;-66
2024/01/08 00:53:03;;;;;;;4.23;3.50;;;-1.20;99.90;;;;;;5075407;28;20204;-66
2024/01/08 00:55:29;;;;;;;4.50;4.10;;;-1.10;99.90;;;;;;5072313;28;20288;-67
2024/01/08 00:58:03;;;;;;;4.37;3.73;;;-1.20;99.90;;;;;;5068208;28;20172;-66
2024/01/08 01:00:28;;;;;;;4.07;3.67;;;-1.10;99.90;;;;;;5072692;28;20255;-66
2024/01/08 01:02:54;;;;;;;4.63;3.93;;;-1.20;99.90;;;;;;5072049;28;20878;-66
2024/01/08 01:05:20;;;;;;;3.90;3.57;;;-1.10;99.90;;;;;;5068606;28;20204;-66
2024/01/08 01:07:45;;;;;;;4.47;4.07;;;-1.10;99.90;;;;;;5080131;28;20195;-66
2024/01/08 01:10:11;;;;;;;5.40;4.47;;;-1.10;99.90;;;;;;5084480;28;20191;-66
2024/01/08 01:12:36;;;;;;;4.00;3.60;;;-1.20;99.90;;;;;;5082730;28;20173;-66
2024/01/08 01:15:02;;;;;;;4.60;4.20;;;-1.20;99.90;;;;;;5063749;28;20208;-66
2024/01/08 01:17:28;;;;;;;4.10;3.70;;;-1.20;99.90;;;;;;5072144;28;20526;-66
2024/01/08 01:19:53;;;;;;;6.17;4.70;;;-1.20;99.90;;;;;;5079912;28;20180;-66
2024/01/08 01:22:18;;;;;;;4.70;4.20;;;-1.20;99.90;;;;;;5079416;28;20203;-66
2024/01/08 01:24:44;;;;;;;4.07;3.67;;;-1.10;99.90;;;;;;5063244;28;20208;-67
2024/01/08 01:27:09;;;;;;;4.90;4.10;;;-1.10;99.90;;;;;;5072200;28;20189;-66
2024/01/08 01:29:35;;;;;;;6.40;4.60;;;-1.20;99.90;;;;;;5065956;28;20614;-66
2024/01/08 01:32:01;;;;;;;4.30;3.90;;;-1.20;99.90;;;;;;5079677;28;20190;-67
2024/01/08 01:34:26;;;;;;;4.90;3.70;;;-1.20;99.90;;;;;;5078804;28;20474;-66
2024/01/08 01:36:52;;;;;;;4.10;3.70;;;-1.20;99.90;;;;;;5078665;28;20191;-66
2024/01/08 01:39:17;;;;;;;6.43;4.43;;;-1.20;99.90;;;;;;5091993;28;20179;-66
2024/01/08 01:41:43;;;;;;;5.67;4.40;;;-1.20;99.90;;;;;;5083094;28;20205;-66
2024/01/08 01:44:09;;;;;;;5.03;4.43;;;-1.20;99.90;;;;;;5071112;28;20225;-66
2024/01/08 01:46:40;;;;;;;6.07;4.50;;;-1.20;99.90;;;;;;5070799;28;20165;-66
2024/01/08 01:49:09;;;;;;;4.27;3.63;;;-1.30;99.90;;;;;;5080336;28;20414;-66
2024/01/08 01:51:35;;;;;;;4.63;4.23;;;-1.20;99.90;;;;;;5076229;28;20437;-66
2024/01/08 01:54:01;;;;;;;5.30;4.80;;;-1.10;99.90;;;;;;5065661;28;20424;-66
2024/01/08 01:56:27;;;;;;;5.57;5.00;;;-1.10;99.90;;;;;;5071166;28;20673;-67
2024/01/08 01:58:53;;;;;;;6.17;4.23;;;-1.20;99.90;;;;;;5071186;28;20188;-66
2024/01/08 02:01:19;;;;;;;4.47;3.87;;;-1.20;99.90;;;;;;5071116;28;20439;-66
2024/01/08 02:03:46;;;;;;;5.70;4.23;;;-1.20;99.90;;;;;;5071243;28;20208;-66
2024/01/08 02:06:12;;;;;;;5.53;4.43;;;-1.20;99.90;;;;;;5085557;28;20452;-66
2024/01/08 02:08:38;;;;;;;6.60;5.20;;;-1.10;99.90;;;;;;5072381;28;20993;-67
2024/01/08 02:11:04;;;;;;;4.93;3.90;;;-1.10;99.90;;;;;;5070324;28;20942;-67
2024/01/08 02:13:30;;;;;;;4.83;4.33;;;-1.00;99.90;;;;;;5070725;28;20431;-66
2024/01/08 02:15:55;;;;;;;5.43;4.50;;;-0.90;99.90;;;;;;5048820;28;20243;-66
2024/01/08 02:18:22;;;;;;;5.10;4.60;;;-1.00;99.90;;;;;;5081942;28;20172;-66
2024/01/08 02:20:47;;;;;;;5.03;4.37;;;-1.00;99.90;;;;;;5070247;28;20180;-66
2024/01/08 02:23:13;;;;;;;4.53;4.00;;;-1.10;99.90;;;;;;5081593;28;20415;-66
2024/01/08 02:25:39;;;;;;;4.90;4.07;;;-1.20;99.90;;;;;;5078084;28;20214;-66
2024/01/08 02:28:04;;;;;;;5.00;3.87;;;-1.20;99.90;;;;;;5076491;28;20196;-67
2024/01/08 02:30:30;;;;;;;6.13;4.00;;;-1.20;99.90;;;;;;5076160;28;20434;-66
2024/01/08 02:32:55;;;;;;;5.23;4.43;;;-1.20;99.90;;;;;;5074683;28;20235;-66
2024/01/08 02:35:21;;;;;;;5.00;4.37;;;-1.20;99.90;;;;;;5072447;28;20593;-66
2024/01/08 02:37:46;;;;;;;6.03;4.57;;;-1.10;99.90;;;;;;5082433;28;20592;-66
2024/01/08 02:40:12;;;;;;;5.20;4.67;;;-1.10;99.90;;;;;;5086235;28;20176;-66
2024/01/08 02:42:40;;;;;;;5.40;4.60;;;-1.10;99.90;;;;;;5078917;28;20169;-66
2024/01/08 02:45:06;;;;;;;4.63;4.10;;;-1.10;99.90;;;;;;5065252;28;21054;-67
2024/01/08 02:47:37;;;;;;;6.20;5.23;;;-1.20;99.90;;;;;;5055890;28;20459;-66
2024/01/08 02:50:08;;;;;;;4.97;4.57;;;-1.10;99.90;;;;;;5083957;28;20861;-66
2024/01/08 02:52:34;;;;;;;4.30;4.00;;;-1.10;99.90;;;;;;5082943;28;21016;-66
2024/01/08 02:55:00;;;;;;;4.70;3.70;;;-1.20;99.90;;;;;;5092784;28;20462;-66
2024/01/08 02:57:26;;;;;;;6.50;4.60;;;-1.20;99.90;;;;;;5091563;28;20633;-66
2024/01/08 02:59:52;;;;;;;4.23;3.73;;;-1.10;99.90;;;;;;5055421;28;20169;-67
2024/01/08 03:02:17;;;;;;;5.60;4.67;;;-1.10;99.90;;;;;;5080596;28;20437;-66
2024/01/08 03:04:42;;;;;;;5.83;4.80;;;-1.10;99.90;;;;;;5090240;28;20577;-66
2024/01/08 03:07:15;;;;;;;3.77;3.47;;;-1.10;99.90;;;;;;5090232;28;20192;-69
2024/01/08 03:09:41;;;;;;;4.90;4.50;;;-1.20;99.90;;;;;;5089995;28;20172;-66
2024/01/08 03:12:06;;;;;;;5.20;4.77;;;-1.20;99.90;;;;;;5095545;28;20417;-66
2024/01/08 03:14:33;;;;;;;5.43;4.70;;;-1.20;99.90;;;;;;5066056;28;20995;-66
2024/01/08 03:16:58;;;;;;;7.53;4.83;;;-1.10;99.90;;;;;;5082103;28;20497;-66
2024/01/08 03:19:24;;;;;;;4.60;4.20;;;-1.10;99.90;;;;;;5083258;28;20637;-66
2024/01/08 03:21:49;;;;;;;5.80;4.60;;;-1.10;99.90;;;;;;5074408;28;20212;-66
2024/01/08 03:24:15;;;;;;;5.80;5.17;;;-1.10;99.90;;;;;;5085806;28;20535;-66
2024/01/08 03:26:40;;;;;;;5.63;4.57;;;-1.10;99.90;;;;;;5088285;28;20219;-66
2024/01/08 03:29:06;;;;;;;5.00;4.30;;;-1.10;99.90;;;;;;5070746;28;20532;-66
2024/01/08 03:31:31;;;;;;;5.77;5.20;;;-1.10;99.90;;;;;;5080615;28;20180;-66
2024/01/08 03:33:57;;;;;;;5.37;4.87;;;-1.00;99.90;;;;;;5083294;28;20177;-67
2024/01/08 03:36:22;;;;;;;5.50;5.00;;;-1.00;99.90;;;;;;5092236;28;20780;-66
2024/01/08 03:38:48;;;;;;;5.30;4.80;;;-1.00;99.90;;;;;;5082502;28;20525;-66
2024/01/08 03:41:15;;;;;;;7.30;4.23;;;-1.10;99.90;;;;;;5067428;28;20642;-66
2024/01/08 03:43:43;;;;;;;6.00;4.90;;;-1.10;99.90;;;;;;5081369;28;20181;-66
2024/01/08 03:46:09;;;;;;;6.60;5.07;;;-1.10;99.90;;;;;;5063987;28;20462;-67
2024/01/08 03:48:34;;;;;;;5.50;5.00;;;-1.00;99.90;;;;;;5085310;28;20437;-66
2024/01/08 03:51:00;;;;;;;4.80;4.47;;;-1.00;99.90;;;;;;5077119;28;20179;-66
2024/01/08 03:53:25;;;;;;;7.07;5.40;;;-1.00;99.90;;;;;;5081852;28;20665;-66
2024/01/08 03:55:51;;;;;;;6.33;4.97;;;-1.00;99.90;;;;;;5077018;28;20234;-66
2024/01/08 03:58:16;;;;;;;5.43;4.53;;;-1.10;99.90;;;;;;5082420;28;20193;-66
2024/01/08 04:00:42;;;;;;;4.63;4.03;;;-1.00;99.90;;;;;;5073321;28;20231;-66
2024/01/08 04:03:07;;;;;;;4.57;4.17;;;-1.00;99.90;;;;;;5083515;28;20183;-66
2024/01/08 04:05:33;;;;;;;6.57;4.90;;;-1.10;99.90;;;;;;5078672;28;20196;-66
2024/01/08 04:07:58;;;;;;;5.07;4.40;;;-1.20;99.90;;;;;;5064749;28;20188;-66
2024/01/08 04:10:24;;;;;;;5.50;4.70;;;-1.20;99.90;;;;;;5077436;28;20188;-66
2024/01/08 04:12:49;;;;;;;5.47;4.73;;;-1.10;99.90;;;;;;5092178;28;20267;-66
2024/01/08 04:15:15;;;;;;;3.70;3.37;;;-1.00;99.90;;;;;;5091257;28;20215;-66
2024/01/08 04:17:40;;;;;;;4.83;4.43;;;-1.10;99.90;;;;;;5085327;28;20208;-65
2024/01/08 04:20:07;;;;;;;5.10;4.60;;;-1.20;99.90;;;;;;5094170;28;20176;-68
2024/01/08 04:22:32;;;;;;;5.57;4.60;;;-1.20;99.90;;;;;;5086768;28;20196;-68
2024/01/08 04:24:57;;;;;;;5.37;4.87;;;-1.20;99.90;;;;;;5081150;28;20861;-68
2024/01/08 04:27:23;;;;;;;5.23;4.20;;;-1.20;99.90;;;;;;5085259;28;20176;-66
2024/01/08 04:29:48;;;;;;;5.00;4.17;;;-1.30;99.90;;;;;;5093904;28;20175;-65
2024/01/08 04:32:14;;;;;;;5.93;5.27;;;-1.30;99.90;;;;;;5093861;28;20168;-68
2024/01/08 04:34:39;;;;;;;4.23;3.83;;;-1.30;99.90;;;;;;5086489;28;20204;-68
2024/01/08 04:37:05;;;;;;;7.27;4.10;;;-1.30;99.90;;;;;;5075400;28;20221;-68
2024/01/08 04:39:30;;;;;;;5.30;4.80;;;-1.30;99.90;;;;;;5079264;28;20177;-68
2024/01/08 04:41:56;;;;;;;5.30;3.90;;;-1.30;99.90;;;;;;5073808;28;20263;-68
2024/01/08 04:44:21;;;;;;;5.03;3.80;;;-1.30;99.90;;;;;;5073370;28;20516;-68
2024/01/08 04:46:47;;;;;;;5.33;4.53;;;-1.30;99.90;;;;;;5072982;28;20165;-68
2024/01/08 04:49:12;;;;;;;4.00;3.70;;;-1.30;99.90;;;;;;5072912;28;20188;-68
2024/01/08 04:51:38;;;;;;;5.17;4.67;;;-1.40;99.90;;;;;;5078228;28;20178;-68
2024/01/08 04:54:04;;;;;;;5.80;4.53;;;-1.30;99.90;;;;;;5075525;28;20173;-65
2024/01/08 04:56:30;;;;;;;5.90;4.57;;;-1.30;99.90;;;;;;5079852;28;20203;-66
2024/01/08 04:58:56;;;;;;;3.30;3.00;;;-1.20;99.90;;;;;;5073273;28;20419;-66
2024/01/08 05:01:22;;;;;;;4.23;3.80;;;-1.30;99.90;;;;;;5072167;28;20551;-68
2024/01/08 05:03:47;;;;;;;6.80;4.53;;;-1.40;99.90;;;;;;5080543;28;20184;-67
2024/01/08 05:06:13;;;;;;;4.73;3.70;;;-1.40;99.90;;;;;;5080144;28;20200;-67
2024/01/08 05:08:39;;;;;;;4.43;4.03;;;-1.40;99.90;;;;;;5075214;28;20294;-67
2024/01/08 05:11:06;;;;;;;5.20;4.70;;;-1.40;99.90;;;;;;5075573;28;20522;-67
2024/01/08 05:13:32;;;;;;;9.13;5.00;;;-1.30;99.90;;;;;;5079288;28;20176;-67
2024/01/08 05:15:57;;;;;;;5.37;4.93;;;-1.30;99.90;;;;;;5078074;28;20532;-66
2024/01/08 05:18:23;;;;;;;7.60;5.00;;;-1.40;99.90;;;;;;5052908;28;20431;-66
2024/01/08 05:20:48;;;;;;;10.90;5.10;;;-1.40;99.90;;;;;;5058779;28;20254;-66
2024/01/08 05:23:14;;;;;;;6.10;4.40;;;-1.30;99.90;;;;;;5074417;28;20587;-67
2024/01/08 05:25:39;;;;;;;5.83;4.00;;;-1.40;99.90;;;;;;5064097;28;20560;-67
2024/01/08 05:28:06;;;;;;;4.70;4.30;;;-1.40;99.90;;;;;;5075217;28;20176;-66
2024/01/08 05:30:31;;;;;;;6.20;5.00;;;-1.40;99.90;;;;;;5070302;28;20285;-67
2024/01/08 05:32:57;;;;;;;6.83;4.93;;;-1.40;99.90;;;;;;5073673;28;21089;-67
2024/01/08 05:35:22;;;;;;;5.70;5.10;;;-1.40;99.90;;;;;;5061703;28;20201;-67
2024/01/08 05:37:48;;;;;;;5.53;4.33;;;-1.40;99.90;;;;;;5078453;28;20180;-67
2024/01/08 05:40:13;;;;;;;5.37;4.83;;;-1.40;99.90;;;;;;5059859;28;20173;-67
2024/01/08 05:42:42;;;;;;;5.80;5.17;;;-1.40;99.90;;;;;;5079985;28;20188;-66
2024/01/08 05:45:09;;;;;;;6.40;5.13;;;-1.50;99.90;;;;;;5067342;28;20201;-67
2024/01/08 05:47:35;;;;;;;7.80;5.90;;;-1.40;99.90;;;;;;5074692;28;20544;-67
2024/01/08 05:50:04;;;;;;;6.50;5.10;;;-1.40;99.90;;;;;;5074290;28;20431;-67
2024/01/08 05:52:29;;;;;;;5.97;5.33;;;-1.40;99.90;;;;;;5068210;28;20810;-67
2024/01/08 05:54:56;;;;;;;8.23;6.63;;;-1.40;99.90;;;;;;5072818;28;20512;-67
2024/01/08 05:57:21;;;;;;;10.03;6.43;;;-1.30;99.90;;;;;;5074544;28;20173;-67
2024/01/08 05:59:47;;;;;;;5.73;5.10;;;-1.40;99.90;;;;;;5087640;28;20539;-67
2024/01/08 06:02:12;;;;;;;7.70;6.00;;;-1.40;99.90;;;;;;5079444;28;20255;-66
2024/01/08 06:04:38;;;;;;;8.50;6.50;;;-1.40;99.90;;;;;;5086384;28;20188;-66
2024/01/08 06:07:04;;;;;;;9.07;7.00;;;-1.40;99.90;;;;;;5073780;28;20250;-67
2024/01/08 06:09:30;;;;;;;8.47;5.40;;;-1.40;99.90;;;;;;5076659;28;20433;-66
2024/01/08 06:11:55;;;;;;;6.83;5.10;;;-1.40;99.90;;;;;;5083662;28;20516;-67
2024/01/08 06:14:21;;;;;;;6.27;4.23;;;-1.50;99.90;;;;;;5074051;28;20176;-66
2024/01/08 06:16:47;;;;;;;5.23;4.17;;;-1.50;99.90;;;;;;5082996;28;20184;-67
2024/01/08 06:19:12;;;;;;;5.93;4.57;;;-1.50;99.90;;;;;;5075272;28;20181;-67
2024/01/08 06:21:38;;;;;;;4.27;3.73;;;-1.60;99.90;;;;;;5078317;28;20193;-67
2024/01/08 06:24:03;;;;;;;3.90;2.87;;;-1.70;99.90;;;;;;5072687;28;20196;-67
2024/01/08 06:26:30;;;;;;;4.00;3.60;;;-1.70;99.90;;;;;;5084126;22;20228;-72
2024/01/08 06:28:56;;;;;;;5.70;4.20;;;-1.70;99.90;;;;;;5062279;28;20208;-72
2024/01/08 06:31:21;;;;;;;8.20;5.67;;;-1.70;99.90;;;;;;5059525;28;20859;-71
2024/01/08 06:33:47;;;;;;;7.70;5.07;;;-1.60;99.90;;;;;;5039054;28;20420;-71
2024/01/08 06:36:12;;;;;;;5.43;4.27;;;-1.60;99.90;;;;;;5061600;28;20212;-72
2024/01/08 06:38:38;;;;;;;8.80;5.57;;;-1.60;99.90;;;;;;5061659;28;20211;-72
2024/01/08 06:41:04;;;;;;;7.77;5.40;;;-1.60;99.90;;;;;;5068017;28;20188;-71
2024/01/08 06:43:29;;;;;;;11.93;5.80;;;-1.60;99.90;;;;;;5067884;28;20192;-72
2024/01/08 06:45:55;;;;;;;7.80;5.40;;;-1.70;99.90;;;;;;5066450;28;20247;-72
2024/01/08 06:48:20;;;;;;;4.27;3.87;;;-1.70;99.90;;;;;;5063762;28;20271;-71
2024/01/08 06:50:46;;;;;;;5.90;4.60;;;-1.60;99.90;;;;;;5055860;28;20185;-72
2024/01/08 06:53:11;;;;;;;9.07;5.70;;;-1.70;99.90;;;;;;5057708;28;20185;-71
2024/01/08 06:55:37;;;;;;;6.97;6.27;;;-1.60;99.90;;;;;;5071749;28;20193;-71
2024/01/08 06:58:03;;;;;;;11.33;5.83;;;-1.60;99.90;;;;;;5071575;28;20177;-72
2024/01/08 07:00:29;;;;;;;7.10;5.20;;;-1.60;99.90;;;;;;5052795;28;20658;-72
2024/01/08 07:02:55;;;;;;;6.27;4.17;;;-1.70;99.90;;;;;;5063734;28;20503;-72
2024/01/08 07:05:20;;;;;;;8.23;5.57;;;-1.60;99.90;;;;;;5056333;28;20204;-72
2024/01/08 07:07:46;;;;;;;6.67;5.07;;;-1.70;99.90;;;;;;5062674;28;20925;-71
2024/01/08 07:10:12;;;;;;;10.93;5.43;;;-1.70;99.90;;;;;;5062832;28;20170;-72
2024/01/08 07:12:37;;;;;;;6.77;5.27;;;-1.70;99.90;;;;;;5059238;28;20515;-72
2024/01/08 07:15:04;;;;;;;7.67;5.40;;;-1.70;99.90;;;;;;5068604;28;20613;-71
2024/01/08 07:17:29;;;;;;;5.90;4.47;;;-1.80;99.90;;;;;;5062137;28;20224;-71
2024/01/08 07:19:55;;;;;;;10.83;5.40;;;-1.80;99.90;;;;;;5065972;28;20467;-72
2024/01/08 07:22:20;;;;;;;9.77;5.90;;;-1.80;99.90;;;;;;5063988;28;20216;-72
2024/01/08 07:24:46;;;;;;;5.80;4.90;;;-1.70;99.90;;;;;;5055787;28;20231;-72
2024/01/08 07:27:12;;;;;;;5.03;4.63;;;-1.70;99.90;;;;;;5059592;28;20214;-72
2024/01/08 07:29:37;;;;;;;7.60;5.60;;;-1.70;99.90;;;;;;5057821;28;20174;-72
2024/01/08 07:32:03;;;;;;;5.33;4.60;;;-1.70;99.90;;;;;;5055168;28;20578;-72
2024/01/08 07:34:29;;;;;;;7.40;4.90;;;-1.70;99.90;;;;;;5068063;28;20181;-71
2024/01/08 07:36:54;;;;;;;7.70;6.13;;;-1.70;99.90;;;;;;5065078;28;20192;-72
2024/01/08 07:39:20;;;;;;;4.90;4.40;;;-1.70;99.90;;;;;;5059734;28;20222;-72
2024/01/08 07:41:45;;;;;;;4.87;4.37;;;-1.60;99.90;;;;;;5063131;28;20189;-72
2024/01/08 07:44:11;;;;;;;4.60;4.03;;;-1.60;99.90;;;;;;5070351;28;20211;-71
2024/01/08 07:46:37;;;;;;;7.60;4.80;;;-1.70;99.90;;;;;;5063275;28;20746;-71
2024/01/08 07:49:03;;;;;;;7.00;5.10;;;-1.60;99.90;;;;;;5046687;28;20586;-71
2024/01/08 07:51:28;;;;;;;7.47;5.40;;;-1.70;99.90;;;;;;5054751;28;20192;-71
2024/01/08 07:53:54;;;;;;;11.33;5.33;;;-1.60;99.90;;;;;;5058740;28;20436;-72
2024/01/08 07:56:26;;;;;;;5.53;4.43;;;-1.50;99.90;;;;;;5065160;28;20196;-71
2024/01/08 07:58:53;;;;;;;5.23;4.70;;;-1.60;99.90;;;;;;5070553;28;20215;-72
2024/01/08 08:01:18;;;;;;;4.63;4.00;;;-1.70;99.90;;;;;;5074444;28;20419;-72
2024/01/08 08:03:44;;;;;;;6.03;4.20;;;-1.80;99.90;;;;;;5073186;28;20549;-72
2024/01/08 08:06:10;;;;;;;9.07;5.63;;;-1.70;99.90;;;;;;5074267;28;20590;-71
2024/01/08 08:08:36;;;;;;;5.43;4.80;;;-1.70;99.90;;;;;;5067987;28;20257;-72
2024/01/08 08:11:06;;;;;;;6.27;4.53;;;-1.70;99.90;;;;;;5061850;28;20518;-71
2024/01/08 08:13:31;;;;;;;7.03;6.07;;;-1.60;99.90;;;;;;5049569;28;20169;-71
2024/01/08 08:15:59;;;;;;;9.40;6.33;;;-1.60;99.90;;;;;;5064860;28;20459;-72
2024/01/08 08:18:24;;;;;;;6.70;4.30;;;-1.50;99.90;;;;;;5066147;28;20684;-72
2024/01/08 08:20:50;;;;;;;5.50;5.00;;;-1.50;99.90;;;;;;5063858;28;20432;-72
2024/01/08 08:23:15;;;;;;;5.47;4.63;;;-1.50;99.90;;;;;;5071722;28;20177;-71
2024/01/08 08:25:41;;;;;;;7.50;5.53;;;-1.50;99.90;;;;;;5049752;28;20212;-72
2024/01/08 08:28:07;;;;;;;6.90;4.80;;;-1.50;99.90;;;;;;5053458;28;20208;-71
2024/01/08 08:30:32;;;;;;;6.37;4.90;;;-1.50;99.90;;;;;;5055369;28;20177;-72
2024/01/08 08:32:58;;;;;;;7.30;4.20;;;-1.50;99.90;;;;;;5062667;28;20285;-72
2024/01/08 08:35:25;;;;;;;4.73;4.27;;;-1.50;99.90;;;;;;5061690;28;20203;-72
2024/01/08 08:37:50;;;;;;;4.50;4.10;;;-1.50;99.90;;;;;;5065634;28;20443;-71
2024/01/08 08:40:16;;;;;;;5.87;4.73;;;-1.60;99.90;;;;;;5069507;28;20455;-71
2024/01/08 08:42:41;;;;;;;7.07;5.50;;;-1.50;99.90;;;;;;5065660;28;20275;-72
2024/01/08 08:45:08;;;;;;;4.03;3.30;;;-1.60;99.90;;;;;;5056875;28;20291;-72
2024/01/08 08:47:33;;;;;;;5.20;3.23;;;-1.70;99.90;;;;;;5058177;28;20195;-72
2024/01/08 08:49:59;;;;;;;7.20;4.83;;;-1.70;99.90;;;;;;5070075;28;20581;-72
2024/01/08 08:52:24;;;;;;;4.80;4.30;;;-1.70;99.90;;;;;;5067171;28;20247;-72
2024/01/08 08:54:50;;;;;;;5.13;4.63;;;-1.70;99.90;;;;;;5063736;28;20575;-72
2024/01/08 08:57:15;;;;;;;4.90;4.20;;;-1.60;99.90;;;;;;5041254;28;20168;-72
2024/01/08 08:59:41;;;;;;;4.57;4.00;;;-1.60;99.90;;;;;;5069169;28;20564;-71
2024/01/08 09:02:06;;;;;;;6.10;4.40;;;-1.70;99.90;;;;;;5065227;28;20267;-71
2024/01/08 09:04:32;;;;;;;7.70;5.00;;;-1.60;99.90;;;;;;5060458;28;20177;-72
2024/01/08 09:06:58;;;;;;;4.30;3.57;;;-1.50;99.90;;;;;;5059907;28;20177;-72
2024/01/08 09:09:23;;;;;;;5.40;3.83;;;-1.40;99.90;;;;;;5058716;28;20217;-72
2024/01/08 09:11:49;;;;;;;9.80;5.30;;;-1.50;99.90;;;;;;5064916;28;20177;-72
2024/01/08 09:14:14;;;;;;;5.43;4.83;;;-1.50;99.90;;;;;;5062577;28;20217;-72
2024/01/08 09:16:40;;;;;;;4.60;3.77;;;-1.50;99.90;;;;;;5059647;28;20228;-71
2024/01/08 09:19:05;;;;;;;3.73;3.40;;;-1.50;99.90;;;;;;5069671;28;20268;-72
2024/01/08 09:21:31;;;;;;;8.10;5.30;;;-1.60;99.90;;;;;;5059373;28;20683;-72
2024/01/08 09:23:56;;;;;;;6.37;4.60;;;-1.50;99.90;;;;;;5064767;28;20177;-71
2024/01/08 09:26:22;;;;;;;7.00;5.43;;;-1.40;99.90;;;;;;5071499;28;20216;-72
2024/01/08 09:28:47;;;;;;;9.50;6.33;;;-1.30;99.90;;;;;;5060420;28;20185;-72
2024/01/08 09:31:13;;;;;;;5.90;5.00;;;-1.20;99.90;;;;;;5061772;28;20207;-72
2024/01/08 09:33:38;;;;;;;6.13;4.50;;;-1.10;99.90;;;;;;5059174;28;20223;-72
2024/01/08 09:36:04;;;;;;;4.33;3.83;;;-1.10;99.90;;;;;;5063397;28;20284;-72
2024/01/08 09:38:30;;;;;;;5.43;4.53;;;-1.10;99.90;;;;;;5059399;28;20181;-72
2024/01/08 09:40:55;;;;;;;4.70;4.30;;;-1.00;99.90;;;;;;5060738;28;20188;-72
2024/01/08 09:43:21;;;;;;;5.73;5.17;;;-0.90;99.90;;;;;;5052610;28;20173;-72
2024/01/08 09:46:11;;;;;;;4.40;3.80;;;-0.90;99.90;;;;;;5053240;28;20205;-72
2024/01/08 09:48:37;;;;;;;6.10;4.83;;;-1.00;99.90;;;;;;5063088;28;20443;-72
2024/01/08 09:51:03;;;;;;;7.40;5.00;;;-1.00;99.90;;;;;;5057175;28;20459;-72
2024/01/08 09:53:30;;;;;;;6.67;4.63;;;-0.90;99.90;;;;;;5036420;28;20515;-71
2024/01/08 09:55:57;;;;;;;6.47;5.30;;;-1.00;99.90;;;;;;5052212;28;20487;-71
2024/01/08 09:58:26;;;;;;;6.30;5.10;;;-1.00;99.90;;;;;;5062796;28;20944;-72
2024/01/08 10:00:53;;;;;;;7.73;6.97;;;-0.90;99.90;;;;;;5057864;28;20431;-72
2024/01/08 10:03:18;;;;;;;3.70;2.50;;;-0.90;99.90;;;;;;5060254;28;20431;-72
2024/01/08 10:05:44;;;;;;;6.27;5.27;;;-1.00;99.90;;;;;;5059825;28;20624;-74
2024/01/08 10:08:10;;;;;;;6.03;4.57;;;-1.10;99.90;;;;;;5056840;28;20176;-74
2024/01/08 10:10:35;;;;;;;6.50;5.40;;;-1.10;99.90;;;;;;5056900;28;20169;-74
2024/01/08 10:13:01;;;;;;;7.93;5.47;;;-1.10;99.90;;;;;;5054162;28;20177;-74
2024/01/08 10:15:28;;;;;;;7.40;5.83;;;-1.10;99.90;;;;;;5069148;28;20205;-74
2024/01/08 10:18:00;;;;;;;6.37;4.30;;;-1.10;99.90;;;;;;5070341;28;20181;-75
2024/01/08 10:20:25;;;;;;;4.60;4.13;;;-1.00;99.90;;;;;;5055281;28;20427;-74
2024/01/08 10:23:05;;;;;;;5.47;4.93;;;-0.90;99.90;;;;;;5059475;28;20497;-74
2024/01/08 10:25:30;;;;;;;5.27;3.77;;;-0.80;99.90;;;;;;5066520;28;20470;-74
2024/01/08 10:27:55;;;;;;;5.03;4.63;;;-0.70;99.90;;;;;;5058835;28;20502;-74
2024/01/08 10:30:21;;;;;;;5.67;4.80;;;-0.70;99.90;;;;;;5043757;28;20181;-74
2024/01/08 10:32:47;;;;;;;4.43;4.03;;;-0.70;99.90;;;;;;5055336;28;20184;-74
2024/01/08 10:35:13;;;;;;;4.57;4.17;;;-0.70;99.90;;;;;;5059534;28;20197;-74
2024/01/08 10:37:39;;;;;;;6.67;5.30;;;-0.70;99.90;;;;;;5056746;28;20378;-73
2024/01/08 10:40:08;;;;;;;5.60;4.20;;;-0.90;99.90;;;;;;5067637;28;20181;-74
2024/01/08 10:42:34;;;;;;;6.03;4.50;;;-0.90;99.90;;;;;;5050388;28;20427;-74
2024/01/08 10:44:59;;;;;;;6.63;5.57;;;-0.90;99.90;;;;;;5071121;28;20588;-73
2024/01/08 10:47:26;;;;;;;6.27;4.87;;;-0.90;99.90;;;;;;5068698;28;20618;-73
2024/01/08 10:49:56;;;;;;;5.17;4.63;;;-0.80;99.90;;;;;;5075552;28;20584;-73
2024/01/08 10:52:29;;;;;;;4.90;4.50;;;-0.80;99.90;;;;;;5075381;28;20836;-74
2024/01/08 10:54:59;;;;;;;6.57;4.80;;;-0.80;99.90;;;;;;5057556;28;20876;-73
2024/01/08 10:57:40;;;;;;;5.90;5.33;;;-0.80;99.90;;;;;;5055111;28;20419;-73
2024/01/08 11:00:09;;;;;;;6.80;5.10;;;-0.70;99.90;;;;;;5070573;28;20437;-73
2024/01/08 11:02:37;;;;;;;6.33;5.30;;;-0.70;99.90;;;;;;5075317;28;20422;-73
2024/01/08 11:05:05;;;;;;;5.13;4.63;;;-0.80;99.90;;;;;;5072281;28;20566;-75
2024/01/08 11:07:33;;;;;;;7.57;5.70;;;-0.70;99.90;;;;;;5064548;28;20477;-74
2024/01/08 11:10:04;;;;;;;5.63;4.43;;;-0.70;99.90;;;;;;5060729;28;20443;-73
2024/01/08 11:12:30;;;;;;;5.33;4.83;;;-0.60;99.90;;;;;;5054988;28;21196;-74
2024/01/08 11:15:03;;;;;;;7.77;5.30;;;-0.70;99.90;;;;;;5055012;28;20436;-74
2024/01/08 11:17:29;;;;;;;6.77;4.67;;;-0.60;99.90;;;;;;5055535;28;20439;-74
2024/01/08 11:19:57;;;;;;;6.03;4.63;;;-0.70;99.90;;;;;;5075098;28;20834;-73
2024/01/08 11:22:23;;;;;;;5.63;5.00;;;-0.80;99.90;;;;;;5074884;28;20234;-73
2024/01/08 11:24:49;;;;;;;6.97;5.30;;;-0.90;99.90;;;;;;5066330;28;20956;-73
2024/01/08 11:27:20;;;;;;;6.30;5.10;;;-0.90;99.90;;;;;;5065555;28;20281;-74
2024/01/08 11:29:58;;;;;;;5.67;4.97;;;-0.80;99.90;;;;;;5074596;28;20173;-74
2024/01/08 11:32:50;;;;;;;5.80;4.70;;;-0.80;99.90;;;;;;5074091;28;20414;-73
2024/01/08 11:35:19;;;;;;;7.67;6.00;;;-0.80;99.90;;;;;;5072953;28;20788;-72
2024/01/08 11:38:01;;;;;;;14.47;10.57;;;-0.60;99.90;;;;;;5065490;28;20511;-71
2024/01/08 11:40:27;;;;;;;7.60;5.40;;;-0.30;99.90;;;;;;5062946;28;20435;-76
2024/01/08 11:42:53;;;;;;;6.73;4.87;;;-0.20;99.90;;;;;;5072214;28;20439;-75
2024/01/08 11:45:19;;;;;;;5.47;4.90;;;0.00;99.90;;;;;;5064077;28;20204;-75
2024/01/08 11:47:45;;;;;;;7.00;4.70;;;0.00;99.90;;;;;;5072055;28;20431;-75
2024/01/08 11:50:12;;;;;;;5.20;4.20;;;0.00;99.90;;;;;;5067682;28;20256;-75
2024/01/08 11:52:39;;;;;;;8.00;4.20;;;0.00;99.90;;;;;;5069072;28;20519;-73
2024/01/08 11:55:06;;;;;;;4.50;4.10;;;0.00;99.90;;;;;;5056351;28;20443;-74
2024/01/08 11:57:33;;;;;;;5.17;4.67;;;0.30;99.90;;;;;;5068949;28;20852;-74
2024/01/08 11:59:59;;;;;;;5.57;4.50;;;0.30;99.90;;;;;;5072660;28;20427;-75
2024/01/08 12:02:27;;;;;;;3.60;3.07;;;0.30;99.90;;;;;;5073961;28;20515;-75
2024/01/08 12:04:59;;;;;;;5.07;4.17;;;0.30;99.90;;;;;;5074053;28;20209;-75
2024/01/08 12:07:27;;;;;;;3.67;3.37;;;0.40;99.90;;;;;;5068616;28;20428;-74
2024/01/08 12:09:54;;;;;;;4.97;4.47;;;0.50;99.90;;;;;;5062109;28;20415;-70
2024/01/08 12:12:20;;;;;;;5.30;4.30;;;0.30;99.90;;;;;;5074140;28;20939;-73
2024/01/08 12:14:47;;;;;;;5.07;4.03;;;0.30;99.90;;;;;;5067465;28;21412;-73
2024/01/08 12:17:15;;;;;;;5.20;4.70;;;0.10;99.90;;;;;;5053542;28;20482;-73
2024/01/08 12:19:50;;;;;;;3.60;3.30;;;-0.20;99.90;;;;;;5053907;28;20445;-73
2024/01/08 12:22:19;;;;;;;5.93;4.60;;;-0.30;99.90;;;;;;5055491;28;20534;-73
2024/01/08 12:24:53;;;;;;;6.97;4.70;;;-0.30;99.90;;;;;;5068001;28;20434;-73
2024/01/08 12:27:20;;;;;;;4.83;4.43;;;-0.30;99.90;;;;;;5060259;22;21012;-73
2024/01/08 12:29:49;;;;;;;6.00;4.30;;;-0.10;99.90;;;;;;5048442;28;20420;-73
2024/01/08 12:32:17;;;;;;;4.87;4.37;;;0.20;99.90;;;;;;5053694;28;20412;-73
2024/01/08 12:34:43;;;;;;;6.73;5.00;;;0.20;99.90;;;;;;5053639;28;20416;-73
2024/01/08 12:37:11;;;;;;;6.27;5.63;;;0.10;99.90;;;;;;5059931;28;20815;-73
2024/01/08 12:39:38;;;;;;;8.00;6.07;;;0.10;99.90;;;;;;5059464;28;20501;-74
2024/01/08 12:42:25;;;;;;;5.80;5.20;;;0.00;99.90;;;;;;5068259;28;20506;-72
2024/01/08 12:44:50;;;;;;;6.20;5.60;;;0.10;99.90;;;;;;5073423;28;20501;-73
2024/01/08 12:47:16;;;;;;;7.63;3.97;;;0.20;99.90;;;;;;5072949;28;20841;-73